createdAt,value
2018-10-07T00:01:02.807Z,8.90
2018-10-07T00:03:31.621Z,8.70
2018-10-07T00:06:00.416Z,8.67
2018-10-07T00:08:29.568Z,9.27
2018-10-07T00:10:58.393Z,8.70
2018-10-07T00:13:27.288Z,8.00
2018-10-07T00:15:56.150Z,8.40
2018-10-07T00:18:24.923Z,9.30
2018-10-07T00:20:53.708Z,8.70
2018-10-07T00:23:22.552Z,8.70
2018-10-07T00:25:51.331Z,8.57
2018-10-07T00:28:20.143Z,8.83
2018-10-07T00:30:49.052Z,9.37
2018-10-07T00:33:17.822Z,9.23
2018-10-07T00:35:46.670Z,9.63
2018-10-07T00:38:15.417Z,9.93
2018-10-07T00:40:44.183Z,11.00
2018-10-07T00:43:13.020Z,11.33
2018-10-07T00:45:41.811Z,11.93
2018-10-07T00:48:10.717Z,13.30
2018-10-07T00:50:39.505Z,11.87
2018-10-07T00:53:08.329Z,13.03
2018-10-07T00:55:37.119Z,13.00
2018-10-07T00:58:06.311Z,12.27
2018-10-07T01:00:35.189Z,12.57
2018-10-07T01:03:03.986Z,12.90
2018-10-07T01:05:32.801Z,12.47
2018-10-07T01:08:01.612Z,13.37
2018-10-07T01:10:30.417Z,12.20
2018-10-07T01:12:59.227Z,12.90
2018-10-07T01:15:28.016Z,12.20
2018-10-07T01:17:56.811Z,12.80
2018-10-07T01:20:25.653Z,12.13
2018-10-07T01:22:54.424Z,12.90
2018-10-07T01:25:23.232Z,13.53
2018-10-07T01:27:52.001Z,12.93
2018-10-07T01:30:22.884Z,13.37
2018-10-07T01:32:53.584Z,13.90
2018-10-07T01:35:22.384Z,13.87
2018-10-07T01:37:51.322Z,13.27
2018-10-07T01:40:20.531Z,13.20
2018-10-07T01:42:49.397Z,13.30
2018-10-07T01:45:18.285Z,13.60
2018-10-07T01:47:47.217Z,13.93
2018-10-07T01:50:16.073Z,14.47
2018-10-07T01:52:44.865Z,14.13
2018-10-07T01:55:13.652Z,16.13
2018-10-07T01:57:42.569Z,15.83
2018-10-07T02:00:11.457Z,14.83
2018-10-07T02:02:40.287Z,13.90
2018-10-07T02:05:09.143Z,13.60
2018-10-07T02:07:38.132Z,13.83
2018-10-07T02:10:06.976Z,12.23
2018-10-07T02:12:35.756Z,11.90
2018-10-07T02:15:04.672Z,11.83
2018-10-07T02:17:33.509Z,11.17
2018-10-07T02:20:02.327Z,11.00
2018-10-07T02:22:31.125Z,11.17
2018-10-07T02:24:59.993Z,11.43
2018-10-07T02:27:28.785Z,10.90
2018-10-07T02:29:57.614Z,12.57
2018-10-07T02:32:26.404Z,10.97
2018-10-07T02:34:55.239Z,12.30
2018-10-07T02:37:24.052Z,11.93
2018-10-07T02:39:52.869Z,13.13
2018-10-07T02:42:21.708Z,13.67
2018-10-07T02:44:50.519Z,14.03
2018-10-07T02:47:19.772Z,13.47
2018-10-07T02:49:48.668Z,14.33
2018-10-07T02:52:22.637Z,13.93
2018-10-07T02:54:51.549Z,14.20
2018-10-07T02:57:20.478Z,12.27
2018-10-07T02:59:49.968Z,14.17
2018-10-07T03:02:18.861Z,13.57
2018-10-07T03:04:47.753Z,15.43
2018-10-07T03:07:16.662Z,13.67
2018-10-07T03:09:45.864Z,15.20
2018-10-07T03:12:14.660Z,15.30
2018-10-07T03:14:43.442Z,15.27
2018-10-07T03:17:12.276Z,16.30
2018-10-07T03:19:41.106Z,17.57
2018-10-07T03:22:09.961Z,16.73
2018-10-07T03:24:38.731Z,17.47
2018-10-07T03:27:07.532Z,17.30
2018-10-07T03:29:36.455Z,17.57
2018-10-07T03:32:05.469Z,18.23
2018-10-07T03:34:34.321Z,17.23
2018-10-07T03:37:03.205Z,17.80
2018-10-07T03:39:32.011Z,17.80
2018-10-07T03:42:00.751Z,16.70
2018-10-07T03:44:29.568Z,17.13
2018-10-07T03:46:58.360Z,17.23
2018-10-07T03:49:27.140Z,17.37
2018-10-07T03:51:56.332Z,17.97
2018-10-07T03:54:25.132Z,18.77
2018-10-07T03:56:54.005Z,17.80
2018-10-07T03:59:22.942Z,18.07
2018-10-07T04:01:51.840Z,17.07
2018-10-07T04:04:20.688Z,17.33
2018-10-07T04:06:49.689Z,15.57
2018-10-07T04:09:18.484Z,16.23
2018-10-07T04:11:47.297Z,16.50
2018-10-07T04:14:16.101Z,17.37
2018-10-07T04:16:45.752Z,18.00
2018-10-07T04:19:14.514Z,16.43
2018-10-07T04:21:51.681Z,16.57
2018-10-07T04:24:20.532Z,16.67
2018-10-07T04:26:49.408Z,18.07
2018-10-07T04:29:18.204Z,20.17
2018-10-07T04:31:47.020Z,18.67
2018-10-07T04:34:15.841Z,18.63
2018-10-07T04:36:44.617Z,19.40
2018-10-07T04:39:14.028Z,19.70
2018-10-07T04:41:43.622Z,20.73
2018-10-07T04:44:12.513Z,20.03
2018-10-07T04:46:41.556Z,19.37
2018-10-07T04:49:10.411Z,20.37
2018-10-07T04:51:39.223Z,19.47
2018-10-07T04:54:08.060Z,19.93
2018-10-07T04:56:36.892Z,19.10
2018-10-07T04:59:05.687Z,19.43
2018-10-07T05:01:34.505Z,19.37
2018-10-07T05:04:03.324Z,20.03
2018-10-07T05:06:34.519Z,18.63
2018-10-07T05:09:06.520Z,16.30
2018-10-07T05:11:35.422Z,19.40
2018-10-07T05:14:06.133Z,18.43
2018-10-07T05:16:46.207Z,17.37
2018-10-07T05:19:15.104Z,19.00
2018-10-07T05:21:44.035Z,17.10
2018-10-07T05:24:12.876Z,17.27
2018-10-07T05:26:41.772Z,18.43
2018-10-07T05:29:10.716Z,18.17
2018-10-07T05:31:39.571Z,19.80
2018-10-07T05:34:08.357Z,20.97
2018-10-07T05:36:37.186Z,20.30
2018-10-07T05:39:08.371Z,18.73
2018-10-07T05:41:37.359Z,20.50
2018-10-07T05:44:06.211Z,22.57
2018-10-07T05:46:35.041Z,22.13
2018-10-07T05:49:03.933Z,21.50
2018-10-07T05:51:32.769Z,21.83
2018-10-07T05:54:01.592Z,20.80
2018-10-07T05:56:30.519Z,22.87
2018-10-07T05:58:59.499Z,22.97
2018-10-07T06:01:34.010Z,24.20
2018-10-07T06:04:27.608Z,23.20
2018-10-07T06:06:57.838Z,23.53
2018-10-07T06:09:29.523Z,24.20
2018-10-07T06:11:58.435Z,24.13
2018-10-07T06:14:38.457Z,22.50
2018-10-07T06:17:07.329Z,23.43
2018-10-07T06:19:36.257Z,24.10
2018-10-07T06:22:05.828Z,23.70
2018-10-07T06:24:36.977Z,23.70
2018-10-07T06:27:06.598Z,20.23
2018-10-07T06:29:36.227Z,22.57
2018-10-07T06:32:05.499Z,22.47
2018-10-07T06:34:34.388Z,21.63
2018-10-07T06:37:03.283Z,21.33
2018-10-07T06:39:32.555Z,22.43
2018-10-07T06:42:01.490Z,22.10
2018-10-07T06:44:30.408Z,22.67
2018-10-07T06:47:00.326Z,22.60
2018-10-07T06:49:29.306Z,21.37
2018-10-07T06:51:58.243Z,22.10
2018-10-07T06:54:27.055Z,20.13
2018-10-07T06:56:56.872Z,20.63
2018-10-07T06:59:25.780Z,20.60
2018-10-07T07:01:54.973Z,30.27
2018-10-07T07:04:23.817Z,29.57
2018-10-07T07:06:52.631Z,20.23
2018-10-07T07:09:21.469Z,18.97
2018-10-07T07:11:50.372Z,20.47
2018-10-07T07:14:19.220Z,20.17
2018-10-07T07:16:49.808Z,19.93
2018-10-07T07:19:18.588Z,21.20
2018-10-07T07:21:47.474Z,20.70
2018-10-07T07:24:16.322Z,18.43
2018-10-07T07:26:45.182Z,19.60
2018-10-07T07:29:14.007Z,18.57
2018-10-07T07:31:42.855Z,18.70
2018-10-07T07:34:11.668Z,19.37
2018-10-07T07:36:41.193Z,19.37
2018-10-07T07:39:10.329Z,19.83
2018-10-07T07:41:39.140Z,20.67
2018-10-07T07:44:08.058Z,20.00
2018-10-07T07:46:36.883Z,19.47
2018-10-07T07:49:05.852Z,20.00
2018-10-07T07:51:34.779Z,18.53
2018-10-07T07:54:03.600Z,19.93
2018-10-07T07:56:32.411Z,18.93
2018-10-07T07:59:01.240Z,18.70
2018-10-07T08:01:30.063Z,19.27
2018-10-07T08:03:58.937Z,19.17
2018-10-07T08:06:27.845Z,18.90
2018-10-07T08:08:56.902Z,18.07
2018-10-07T08:11:25.910Z,16.97
2018-10-07T08:13:54.756Z,19.70
2018-10-07T08:16:23.595Z,19.00
2018-10-07T08:18:52.421Z,17.90
2018-10-07T08:21:21.243Z,20.27
2018-10-07T08:23:50.142Z,16.17
2018-10-07T08:26:19.414Z,17.90
2018-10-07T08:28:48.777Z,18.07
2018-10-07T08:31:17.581Z,17.33
2018-10-07T08:33:46.392Z,17.17
2018-10-07T08:36:15.184Z,17.17
2018-10-07T08:38:44.049Z,18.13
2018-10-07T08:41:12.859Z,17.50
2018-10-07T08:43:41.648Z,18.17
2018-10-07T08:46:10.466Z,16.87
2018-10-07T08:48:39.343Z,17.07
2018-10-07T08:51:08.172Z,17.87
2018-10-07T08:53:37.242Z,16.43
2018-10-07T08:56:06.119Z,16.07
2018-10-07T08:58:35.096Z,15.27
2018-10-07T09:01:03.989Z,16.93
2018-10-07T09:03:33.030Z,16.93
2018-10-07T09:06:01.867Z,17.47
2018-10-07T09:08:30.798Z,17.03
2018-10-07T09:10:59.704Z,16.63
2018-10-07T09:13:28.565Z,17.03
2018-10-07T09:15:57.509Z,15.90
2018-10-07T09:18:26.308Z,19.93
2018-10-07T09:20:55.174Z,15.87
2018-10-07T09:23:24.173Z,16.23
2018-10-07T09:25:53.111Z,15.93
2018-10-07T09:28:22.081Z,15.20
2018-10-07T09:30:50.915Z,14.20
2018-10-07T09:33:19.698Z,13.70
2018-10-07T09:35:48.519Z,13.00
2018-10-07T09:38:17.477Z,12.53
2018-10-07T09:40:47.294Z,12.83
2018-10-07T09:43:16.256Z,13.60
2018-10-07T09:45:45.082Z,13.07
2018-10-07T09:48:14.070Z,13.67
2018-10-07T09:50:42.941Z,12.43
2018-10-07T09:53:11.753Z,12.00
2018-10-07T09:55:40.585Z,11.60
2018-10-07T09:58:09.401Z,10.77
2018-10-07T10:00:39.608Z,9.97
2018-10-07T10:03:09.198Z,10.97
2018-10-07T10:05:38.024Z,10.80
2018-10-07T10:08:07.153Z,10.90
2018-10-07T10:10:36.011Z,9.93
2018-10-07T10:13:05.244Z,10.40
2018-10-07T10:15:34.100Z,9.33
2018-10-07T10:18:06.465Z,9.97
2018-10-07T10:20:44.580Z,8.80
2018-10-07T10:23:24.492Z,10.00
2018-10-07T10:26:17.057Z,10.03
2018-10-07T10:28:51.737Z,8.43
2018-10-07T10:31:32.963Z,8.53
2018-10-07T10:34:09.241Z,10.33
2018-10-07T10:36:48.044Z,12.33
2018-10-07T10:39:56.429Z,16.03
2018-10-07T10:42:49.432Z,10.67
2018-10-07T10:45:38.403Z,9.03
2018-10-07T10:48:30.177Z,8.13
2018-10-07T10:51:04.466Z,8.00
2018-10-07T10:53:42.616Z,8.17
2018-10-07T10:56:30.888Z,7.70
2018-10-07T11:01:14.145Z,8.00
2018-10-07T11:04:58.924Z,7.43
2018-10-07T11:08:06.154Z,7.53
2018-10-07T11:10:41.886Z,6.60
2018-10-07T11:13:19.894Z,6.57
2018-10-07T11:16:00.485Z,7.00
2018-10-07T11:19:07.449Z,6.77
2018-10-07T11:23:50.873Z,7.50
2018-10-07T11:28:30.749Z,7.20
2018-10-07T11:31:13.360Z,7.60
2018-10-07T11:34:30.025Z,7.23
2018-10-07T11:38:20.752Z,6.90
2018-10-07T11:41:00.718Z,6.53
2018-10-07T11:43:39.117Z,6.07
2018-10-07T11:48:22.194Z,6.63
2018-10-07T11:51:07.510Z,7.83
2018-10-07T11:53:40.370Z,6.87
2018-10-07T11:56:09.213Z,16.77
2018-10-07T11:58:38.152Z,18.03
2018-10-07T12:01:07.225Z,6.87
2018-10-07T12:03:36.510Z,6.77
2018-10-07T12:06:05.497Z,6.60
2018-10-07T12:08:34.564Z,7.70
2018-10-07T12:11:03.573Z,6.80
2018-10-07T12:13:32.721Z,5.87
2018-10-07T12:16:01.823Z,5.47
2018-10-07T12:18:30.924Z,6.30
2018-10-07T12:20:59.887Z,5.23
2018-10-07T12:23:28.877Z,5.70
2018-10-07T12:26:04.484Z,6.27
2018-10-07T12:28:33.494Z,7.00
2018-10-07T12:31:02.474Z,11.97
2018-10-07T12:33:31.480Z,9.90
2018-10-07T12:36:00.419Z,5.30
2018-10-07T12:38:29.321Z,5.33
2018-10-07T12:40:58.365Z,5.53
2018-10-07T12:43:27.299Z,5.33
2018-10-07T12:45:56.441Z,5.37
2018-10-07T12:48:25.414Z,4.57
2018-10-07T12:50:54.460Z,4.00
2018-10-07T12:53:23.485Z,4.00
2018-10-07T12:55:52.540Z,4.60
2018-10-07T12:58:21.520Z,4.33
2018-10-07T13:00:50.544Z,4.27
2018-10-07T13:03:19.535Z,4.87
2018-10-07T13:05:48.754Z,4.90
2018-10-07T13:08:17.758Z,4.67
2018-10-07T13:10:46.729Z,4.80
2018-10-07T13:13:15.701Z,4.73
2018-10-07T13:15:44.795Z,4.80
2018-10-07T13:18:13.766Z,6.30
2018-10-07T13:20:42.793Z,4.90
2018-10-07T13:23:11.836Z,4.47
2018-10-07T13:25:40.793Z,4.87
2018-10-07T13:28:09.697Z,4.80
2018-10-07T13:30:38.758Z,5.40
2018-10-07T13:33:07.699Z,4.83
2018-10-07T13:35:36.678Z,4.77
2018-10-07T13:38:05.692Z,5.57
2018-10-07T13:40:34.594Z,5.90
2018-10-07T13:43:03.647Z,5.73
2018-10-07T13:45:32.685Z,6.10
2018-10-07T13:48:01.776Z,5.17
2018-10-07T13:50:30.815Z,5.90
2018-10-07T13:52:59.802Z,4.67
2018-10-07T13:55:28.991Z,4.80
2018-10-07T13:57:57.915Z,4.60
2018-10-07T14:00:26.904Z,4.77
2018-10-07T14:02:55.864Z,4.50
2018-10-07T14:05:24.789Z,5.03
2018-10-07T14:07:53.805Z,4.97
2018-10-07T14:10:22.777Z,5.60
2018-10-07T14:12:51.760Z,6.23
2018-10-07T14:15:20.772Z,5.30
2018-10-07T14:17:49.725Z,6.13
2018-10-07T14:20:18.917Z,5.80
2018-10-07T14:22:48.056Z,5.70
2018-10-07T14:25:17.111Z,5.27
2018-10-07T14:27:46.022Z,4.93
2018-10-07T14:30:15.048Z,5.20
2018-10-07T14:32:44.014Z,4.93
2018-10-07T14:35:13.046Z,5.67
2018-10-07T14:37:42.116Z,5.00
2018-10-07T14:40:11.076Z,5.33
2018-10-07T14:42:40.061Z,5.23
2018-10-07T14:45:09.041Z,5.53
2018-10-07T14:47:38.062Z,5.90
2018-10-07T14:50:07.484Z,20.07
2018-10-07T14:52:36.561Z,5.70
2018-10-07T14:55:05.732Z,5.07
2018-10-07T14:57:35.024Z,5.30
2018-10-07T15:00:06.032Z,4.97
2018-10-07T15:02:35.130Z,5.90
2018-10-07T15:05:04.116Z,4.67
2018-10-07T15:07:33.257Z,5.00
2018-10-07T15:10:02.261Z,10.47
2018-10-07T15:12:31.204Z,6.63
2018-10-07T15:15:00.341Z,6.43
2018-10-07T15:17:29.332Z,6.77
2018-10-07T15:19:58.428Z,6.17
2018-10-07T15:22:27.580Z,6.40
2018-10-07T15:24:56.574Z,6.17
2018-10-07T15:27:25.944Z,6.70
2018-10-07T15:29:54.914Z,7.50
2018-10-07T15:32:24.197Z,8.63
2018-10-07T15:34:53.210Z,8.00
2018-10-07T15:37:22.499Z,8.30
2018-10-07T15:39:51.601Z,8.97
2018-10-07T15:42:20.664Z,8.77
2018-10-07T15:44:49.755Z,8.97
2018-10-07T15:47:18.833Z,8.93
2018-10-07T15:49:50.052Z,9.40
2018-10-07T15:52:19.190Z,13.70
2018-10-07T15:54:51.164Z,12.67
2018-10-07T15:57:20.237Z,12.77
2018-10-07T15:59:49.120Z,10.73
2018-10-07T16:02:18.059Z,8.90
2018-10-07T16:04:47.109Z,9.60
2018-10-07T16:07:16.302Z,9.30
2018-10-07T16:09:46.057Z,8.40
2018-10-07T16:12:15.316Z,9.47
2018-10-07T16:14:44.400Z,8.10
2018-10-07T16:17:13.375Z,8.77
2018-10-07T16:19:42.447Z,8.03
2018-10-07T16:22:11.462Z,9.43
2018-10-07T16:24:40.364Z,8.60
2018-10-07T16:27:09.468Z,8.93
2018-10-07T16:29:38.496Z,10.77
2018-10-07T16:32:07.639Z,9.17
2018-10-07T16:34:36.574Z,8.93
2018-10-07T16:37:05.512Z,9.90
2018-10-07T16:39:34.738Z,9.30
2018-10-07T16:42:03.832Z,9.17
2018-10-07T16:44:32.845Z,8.87
2018-10-07T16:47:01.893Z,8.13
2018-10-07T16:49:31.109Z,7.60
2018-10-07T16:52:00.051Z,7.30
2018-10-07T16:54:29.165Z,7.77
2018-10-07T16:56:58.208Z,7.37
2018-10-07T16:59:27.220Z,7.60
2018-10-07T17:01:56.234Z,6.80
2018-10-07T17:04:25.244Z,5.97
2018-10-07T17:06:54.165Z,6.60
2018-10-07T17:09:23.165Z,6.77
2018-10-07T17:11:52.073Z,7.43
2018-10-07T17:14:21.090Z,6.77
2018-10-07T17:16:50.308Z,7.03
2018-10-07T17:19:19.379Z,6.77
2018-10-07T17:21:48.518Z,6.70
2018-10-07T17:24:17.628Z,7.17
2018-10-07T17:26:46.574Z,7.67
2018-10-07T17:29:15.513Z,7.40
2018-10-07T17:31:44.461Z,7.43
2018-10-07T17:34:13.473Z,7.07
2018-10-07T17:36:42.502Z,7.17
2018-10-07T17:39:12.187Z,7.00
2018-10-07T17:41:41.676Z,7.30
2018-10-07T17:44:10.652Z,6.97
2018-10-07T17:46:39.744Z,6.80
2018-10-07T17:49:08.894Z,6.93
2018-10-07T17:51:37.933Z,7.97
2018-10-07T17:54:07.020Z,8.37
2018-10-07T17:56:35.965Z,9.47
2018-10-07T17:59:05.305Z,9.00
2018-10-07T18:01:34.319Z,9.13
2018-10-07T18:04:03.504Z,8.73
2018-10-07T18:06:32.404Z,8.83
2018-10-07T18:09:01.382Z,8.03
2018-10-07T18:11:30.563Z,8.17
2018-10-07T18:13:59.453Z,8.13
2018-10-07T18:16:28.421Z,7.93
2018-10-07T18:18:57.433Z,7.77
2018-10-07T18:21:26.342Z,7.13
2018-10-07T18:23:55.409Z,7.13
2018-10-07T18:26:24.323Z,7.03
2018-10-07T18:28:53.491Z,6.73
2018-10-07T18:31:22.416Z,7.10
2018-10-07T18:33:51.361Z,7.20
2018-10-07T18:36:20.317Z,7.10
2018-10-07T18:38:49.319Z,7.60
2018-10-07T18:41:18.353Z,7.47
2018-10-07T18:43:47.278Z,7.07
2018-10-07T18:46:16.208Z,6.30
2018-10-07T18:48:45.287Z,6.30
2018-10-07T18:51:14.324Z,6.80
2018-10-07T18:53:43.319Z,7.03
2018-10-07T18:56:12.266Z,6.77
2018-10-07T18:58:41.268Z,6.60
2018-10-07T19:01:10.208Z,6.60
2018-10-07T19:03:39.297Z,6.27
2018-10-07T19:06:08.789Z,5.90
2018-10-07T19:08:37.820Z,6.43
2018-10-07T19:11:06.958Z,6.53
2018-10-07T19:13:35.785Z,6.50
2018-10-07T19:16:04.662Z,6.47
2018-10-07T19:18:33.454Z,6.77
2018-10-07T19:21:02.603Z,7.40
2018-10-07T19:23:31.488Z,7.00
2018-10-07T19:26:00.456Z,7.80
2018-10-07T19:28:29.369Z,8.57
2018-10-07T19:30:58.188Z,8.03
2018-10-07T19:33:27.135Z,8.73
2018-10-07T19:35:56.110Z,9.33
2018-10-07T19:38:24.993Z,9.20
2018-10-07T19:40:54.028Z,11.37
2018-10-07T19:43:22.852Z,9.57
2018-10-07T19:45:52.093Z,10.23
2018-10-07T19:48:21.068Z,9.57
2018-10-07T19:50:49.875Z,9.80
2018-10-07T19:53:18.672Z,9.90
2018-10-07T19:55:47.476Z,8.77
2018-10-07T19:58:16.507Z,9.90
2018-10-07T20:00:45.340Z,8.20
2018-10-07T20:03:14.200Z,8.17
2018-10-07T20:05:43.544Z,10.20
2018-10-07T20:08:12.345Z,8.10
2018-10-07T20:10:41.301Z,8.70
2018-10-07T20:13:10.138Z,8.50
2018-10-07T20:15:39.081Z,7.37
2018-10-07T20:18:08.152Z,8.40
2018-10-07T20:20:37.141Z,8.00
2018-10-07T20:23:06.152Z,7.97
2018-10-07T20:25:35.045Z,8.50
2018-10-07T20:28:04.336Z,7.47
2018-10-07T20:30:33.147Z,8.53
2018-10-07T20:33:02.258Z,8.50
2018-10-07T20:35:31.134Z,8.20
2018-10-07T20:37:59.989Z,7.93
2018-10-07T20:40:28.936Z,8.30
2018-10-07T20:42:57.960Z,11.60
2018-10-07T20:45:26.863Z,8.57
2018-10-07T20:47:55.656Z,8.70
2018-10-07T20:50:25.329Z,8.03
2018-10-07T20:52:53.676Z,8.60
2018-10-07T20:55:22.466Z,9.17
2018-10-07T20:57:51.366Z,9.00
2018-10-07T21:00:20.199Z,8.10
2018-10-07T21:02:49.072Z,8.03
2018-10-07T21:05:18.033Z,9.57
2018-10-07T21:07:47.010Z,8.90
2018-10-07T21:10:15.835Z,8.80
2018-10-07T21:12:44.761Z,9.83
2018-10-07T21:15:13.625Z,9.50
2018-10-07T21:17:42.489Z,9.97
2018-10-07T21:20:11.343Z,9.73
2018-10-07T21:22:40.223Z,10.27
2018-10-07T21:25:09.088Z,10.40
2018-10-07T21:27:37.982Z,10.33
2018-10-07T21:30:07.865Z,10.10
2018-10-07T21:32:36.762Z,10.93
2018-10-07T21:35:05.653Z,9.63
2018-10-07T21:37:34.659Z,10.37
2018-10-07T21:40:03.716Z,10.60
2018-10-07T21:42:32.563Z,9.37
2018-10-07T21:45:01.461Z,11.40
2018-10-07T21:47:30.452Z,9.87
2018-10-07T21:49:59.292Z,10.50
2018-10-07T21:52:28.297Z,10.30
2018-10-07T21:54:57.238Z,11.30
2018-10-07T21:57:26.140Z,11.50
2018-10-07T21:59:55.024Z,11.27
2018-10-07T22:02:23.804Z,10.27
2018-10-07T22:04:52.604Z,11.30
2018-10-07T22:07:21.804Z,10.73
2018-10-07T22:09:50.691Z,11.20
2018-10-07T22:12:19.558Z,11.07
2018-10-07T22:14:48.385Z,10.77
2018-10-07T22:17:17.187Z,11.03
2018-10-07T22:19:46.137Z,10.57
2018-10-07T22:22:15.189Z,11.37
2018-10-07T22:24:44.708Z,10.80
2018-10-07T22:27:13.620Z,10.87
2018-10-07T22:29:42.515Z,11.17
2018-10-07T22:32:11.337Z,10.60
2018-10-07T22:34:40.187Z,11.73
2018-10-07T22:37:09.092Z,12.20
2018-10-07T22:39:37.892Z,10.57
2018-10-07T22:42:06.724Z,10.90
2018-10-07T22:44:35.667Z,11.00
2018-10-07T22:47:04.620Z,11.37
2018-10-07T22:49:33.596Z,11.53
2018-10-07T22:52:02.506Z,12.57
2018-10-07T22:54:31.362Z,11.67
2018-10-07T22:57:00.224Z,11.10
2018-10-07T22:59:29.046Z,10.90
2018-10-07T23:01:58.008Z,10.30
2018-10-07T23:04:26.912Z,10.70
2018-10-07T23:06:55.785Z,11.70
2018-10-07T23:09:24.730Z,11.10
2018-10-07T23:11:53.537Z,10.77
2018-10-07T23:14:22.476Z,10.67
2018-10-07T23:16:51.496Z,11.13
2018-10-07T23:19:20.379Z,11.30
2018-10-07T23:21:49.376Z,10.70
2018-10-07T23:24:18.191Z,10.73
2018-10-07T23:26:47.897Z,9.97
2018-10-07T23:29:16.795Z,11.67
2018-10-07T23:31:45.644Z,10.70
2018-10-07T23:34:14.583Z,12.07
2018-10-07T23:36:43.471Z,13.20
2018-10-07T23:39:12.812Z,12.53
2018-10-07T23:41:41.808Z,12.10
2018-10-07T23:44:10.583Z,10.53
2018-10-07T23:46:39.360Z,11.53
2018-10-07T23:49:08.717Z,10.53
2018-10-07T23:51:37.705Z,11.30
2018-10-07T23:54:06.748Z,10.30
2018-10-07T23:56:35.587Z,10.07
2018-10-07T23:59:04.391Z,10.10
